sensor_id;sensor_type;location;lat;lon;timestamp;P1;durP1;ratioP1;P2;durP2;ratioP2
84510;SDS011;74730;43.858;18.424;2024-02-15T00:01:57;26.63;;;13.40;;
84510;SDS011;74730;43.858;18.424;2024-02-15T00:04:22;23.48;;;12.80;;
84510;SDS011;74730;43.858;18.424;2024-02-15T00:06:48;24.80;;;12.75;;
84510;SDS011;74730;43.858;18.424;2024-02-15T00:09:14;26.33;;;13.05;;
84510;SDS011;74730;43.858;18.424;2024-02-15T00:11:39;24.65;;;12.75;;
84510;SDS011;74730;43.858;18.424;2024-02-15T00:14:05;22.92;;;11.60;;
84510;SDS011;74730;43.858;18.424;2024-02-15T00:16:30;20.58;;;12.15;;
84510;SDS011;74730;43.858;18.424;2024-02-15T00:18:56;23.63;;;12.73;;
84510;SDS011;74730;43.858;18.424;2024-02-15T00:21:22;25.42;;;13.23;;
84510;SDS011;74730;43.858;18.424;2024-02-15T00:23:50;20.85;;;12.02;;
84510;SDS011;74730;43.858;18.424;2024-02-15T00:26:16;21.23;;;11.40;;
84510;SDS011;74730;43.858;18.424;2024-02-15T00:28:41;28.60;;;11.82;;
84510;SDS011;74730;43.858;18.424;2024-02-15T00:31:07;22.50;;;10.57;;
84510;SDS011;74730;43.858;18.424;2024-02-15T00:33:33;19.73;;;12.18;;
84510;SDS011;74730;43.858;18.424;2024-02-15T00:36:00;19.23;;;10.55;;
84510;SDS011;74730;43.858;18.424;2024-02-15T00:38:26;18.38;;;11.50;;
84510;SDS011;74730;43.858;18.424;2024-02-15T00:40:52;20.83;;;10.50;;
84510;SDS011;74730;43.858;18.424;2024-02-15T00:43:18;19.60;;;11.77;;
84510;SDS011;74730;43.858;18.424;2024-02-15T00:45:44;23.92;;;12.32;;
84510;SDS011;74730;43.858;18.424;2024-02-15T00:48:10;28.33;;;13.45;;
84510;SDS011;74730;43.858;18.424;2024-02-15T00:50:36;21.20;;;12.30;;
84510;SDS011;74730;43.858;18.424;2024-02-15T00:53:02;28.35;;;12.60;;
84510;SDS011;74730;43.858;18.424;2024-02-15T00:55:28;24.77;;;12.73;;
84510;SDS011;74730;43.858;18.424;2024-02-15T00:57:53;24.42;;;12.55;;
84510;SDS011;74730;43.858;18.424;2024-02-15T01:00:18;24.33;;;13.55;;
84510;SDS011;74730;43.858;18.424;2024-02-15T01:02:45;22.67;;;12.05;;
84510;SDS011;74730;43.858;18.424;2024-02-15T01:05:11;21.83;;;12.75;;
84510;SDS011;74730;43.858;18.424;2024-02-15T01:07:37;21.73;;;12.60;;
84510;SDS011;74730;43.858;18.424;2024-02-15T01:10:02;23.00;;;12.32;;
84510;SDS011;74730;43.858;18.424;2024-02-15T01:12:28;26.80;;;13.23;;
84510;SDS011;74730;43.858;18.424;2024-02-15T01:14:54;27.92;;;13.75;;
84510;SDS011;74730;43.858;18.424;2024-02-15T01:17:21;25.75;;;14.63;;
84510;SDS011;74730;43.858;18.424;2024-02-15T01:19:47;27.67;;;14.27;;
84510;SDS011;74730;43.858;18.424;2024-02-15T01:22:12;20.92;;;10.75;;
84510;SDS011;74730;43.858;18.424;2024-02-15T01:24:38;19.50;;;10.85;;
84510;SDS011;74730;43.858;18.424;2024-02-15T01:27:03;18.67;;;10.70;;
84510;SDS011;74730;43.858;18.424;2024-02-15T01:29:29;25.60;;;12.55;;
84510;SDS011;74730;43.858;18.424;2024-02-15T01:31:55;14.85;;;10.30;;
84510;SDS011;74730;43.858;18.424;2024-02-15T01:34:21;20.75;;;12.50;;
84510;SDS011;74730;43.858;18.424;2024-02-15T01:36:49;30.17;;;14.70;;
84510;SDS011;74730;43.858;18.424;2024-02-15T01:39:15;23.55;;;13.00;;
84510;SDS011;74730;43.858;18.424;2024-02-15T01:41:45;26.33;;;13.55;;
84510;SDS011;74730;43.858;18.424;2024-02-15T01:46:38;33.05;;;15.27;;
84510;SDS011;74730;43.858;18.424;2024-02-15T01:49:04;20.95;;;11.75;;
84510;SDS011;74730;43.858;18.424;2024-02-15T01:51:32;25.00;;;13.18;;
84510;SDS011;74730;43.858;18.424;2024-02-15T01:54:00;28.58;;;13.57;;
84510;SDS011;74730;43.858;18.424;2024-02-15T01:56:27;28.73;;;15.15;;
84510;SDS011;74730;43.858;18.424;2024-02-15T01:58:53;28.98;;;14.77;;
84510;SDS011;74730;43.858;18.424;2024-02-15T02:01:19;21.20;;;13.43;;
84510;SDS011;74730;43.858;18.424;2024-02-15T02:03:46;27.10;;;14.15;;
84510;SDS011;74730;43.858;18.424;2024-02-15T02:06:11;26.85;;;12.88;;
84510;SDS011;74730;43.858;18.424;2024-02-15T02:08:37;23.02;;;12.90;;
84510;SDS011;74730;43.858;18.424;2024-02-15T02:11:03;24.77;;;12.57;;
84510;SDS011;74730;43.858;18.424;2024-02-15T02:13:29;23.42;;;13.60;;
84510;SDS011;74730;43.858;18.424;2024-02-15T02:15:54;25.27;;;13.18;;
84510;SDS011;74730;43.858;18.424;2024-02-15T02:18:21;23.27;;;12.85;;
84510;SDS011;74730;43.858;18.424;2024-02-15T02:20:49;25.83;;;12.63;;
84510;SDS011;74730;43.858;18.424;2024-02-15T02:23:15;21.33;;;10.70;;
84510;SDS011;74730;43.858;18.424;2024-02-15T02:25:43;20.00;;;10.77;;
84510;SDS011;74730;43.858;18.424;2024-02-15T02:28:09;19.27;;;9.95;;
84510;SDS011;74730;43.858;18.424;2024-02-15T02:30:36;18.67;;;9.80;;
84510;SDS011;74730;43.858;18.424;2024-02-15T02:33:01;19.55;;;10.15;;
84510;SDS011;74730;43.858;18.424;2024-02-15T02:35:27;20.90;;;10.10;;
84510;SDS011;74730;43.858;18.424;2024-02-15T02:37:55;18.73;;;9.57;;
84510;SDS011;74730;43.858;18.424;2024-02-15T02:40:21;23.58;;;12.07;;
84510;SDS011;74730;43.858;18.424;2024-02-15T02:42:53;18.65;;;10.90;;
84510;SDS011;74730;43.858;18.424;2024-02-15T02:45:26;20.92;;;12.00;;
84510;SDS011;74730;43.858;18.424;2024-02-15T02:47:52;30.90;;;14.85;;
84510;SDS011;74730;43.858;18.424;2024-02-15T02:50:18;32.45;;;16.27;;
84510;SDS011;74730;43.858;18.424;2024-02-15T02:52:45;33.47;;;19.23;;
84510;SDS011;74730;43.858;18.424;2024-02-15T02:55:13;39.90;;;21.88;;
84510;SDS011;74730;43.858;18.424;2024-02-15T02:57:39;35.75;;;19.70;;
84510;SDS011;74730;43.858;18.424;2024-02-15T03:00:05;43.58;;;21.40;;
84510;SDS011;74730;43.858;18.424;2024-02-15T03:02:38;43.35;;;21.42;;
84510;SDS011;74730;43.858;18.424;2024-02-15T03:05:04;37.25;;;20.02;;
84510;SDS011;74730;43.858;18.424;2024-02-15T03:07:34;41.13;;;22.20;;
84510;SDS011;74730;43.858;18.424;2024-02-15T03:10:04;39.30;;;20.77;;
84510;SDS011;74730;43.858;18.424;2024-02-15T03:12:33;48.33;;;23.45;;
84510;SDS011;74730;43.858;18.424;2024-02-15T03:15:00;43.58;;;22.33;;
84510;SDS011;74730;43.858;18.424;2024-02-15T03:17:27;44.55;;;24.20;;
84510;SDS011;74730;43.858;18.424;2024-02-15T03:19:52;29.77;;;15.60;;
84510;SDS011;74730;43.858;18.424;2024-02-15T03:22:18;38.17;;;19.15;;
84510;SDS011;74730;43.858;18.424;2024-02-15T03:24:43;46.15;;;23.67;;
84510;SDS011;74730;43.858;18.424;2024-02-15T03:27:09;47.67;;;22.65;;
84510;SDS011;74730;43.858;18.424;2024-02-15T03:29:35;48.97;;;24.45;;
84510;SDS011;74730;43.858;18.424;2024-02-15T03:32:01;53.30;;;25.35;;
84510;SDS011;74730;43.858;18.424;2024-02-15T03:34:31;55.13;;;27.15;;
84510;SDS011;74730;43.858;18.424;2024-02-15T03:36:57;57.33;;;26.73;;
84510;SDS011;74730;43.858;18.424;2024-02-15T03:39:23;52.47;;;26.38;;
84510;SDS011;74730;43.858;18.424;2024-02-15T03:41:49;54.42;;;26.90;;
84510;SDS011;74730;43.858;18.424;2024-02-15T03:44:17;46.63;;;23.42;;
84510;SDS011;74730;43.858;18.424;2024-02-15T03:46:44;31.77;;;16.05;;
84510;SDS011;74730;43.858;18.424;2024-02-15T03:49:19;27.30;;;15.82;;
84510;SDS011;74730;43.858;18.424;2024-02-15T03:51:45;28.75;;;14.15;;
84510;SDS011;74730;43.858;18.424;2024-02-15T03:54:11;21.88;;;12.35;;
84510;SDS011;74730;43.858;18.424;2024-02-15T03:56:37;23.48;;;11.43;;
84510;SDS011;74730;43.858;18.424;2024-02-15T03:59:11;26.08;;;14.23;;
84510;SDS011;74730;43.858;18.424;2024-02-15T04:01:38;25.35;;;14.25;;
84510;SDS011;74730;43.858;18.424;2024-02-15T04:04:04;26.85;;;13.20;;
84510;SDS011;74730;43.858;18.424;2024-02-15T04:06:30;28.98;;;15.25;;
84510;SDS011;74730;43.858;18.424;2024-02-15T04:08:58;34.33;;;14.63;;
84510;SDS011;74730;43.858;18.424;2024-02-15T04:11:24;32.78;;;16.20;;
84510;SDS011;74730;43.858;18.424;2024-02-15T04:13:50;32.50;;;14.52;;
84510;SDS011;74730;43.858;18.424;2024-02-15T04:16:16;27.92;;;13.93;;
84510;SDS011;74730;43.858;18.424;2024-02-15T04:18:41;26.98;;;13.48;;
84510;SDS011;74730;43.858;18.424;2024-02-15T04:21:09;16.55;;;9.82;;
84510;SDS011;74730;43.858;18.424;2024-02-15T04:23:34;19.48;;;9.38;;
84510;SDS011;74730;43.858;18.424;2024-02-15T04:26:00;17.73;;;9.98;;
84510;SDS011;74730;43.858;18.424;2024-02-15T04:28:25;22.90;;;13.32;;
84510;SDS011;74730;43.858;18.424;2024-02-15T04:30:52;42.13;;;21.33;;
84510;SDS011;74730;43.858;18.424;2024-02-15T04:33:17;42.60;;;20.88;;
84510;SDS011;74730;43.858;18.424;2024-02-15T04:35:43;32.47;;;20.40;;
84510;SDS011;74730;43.858;18.424;2024-02-15T04:38:09;39.35;;;20.10;;
84510;SDS011;74730;43.858;18.424;2024-02-15T04:40:34;33.30;;;19.08;;
84510;SDS011;74730;43.858;18.424;2024-02-15T04:43:02;42.28;;;19.17;;
84510;SDS011;74730;43.858;18.424;2024-02-15T04:45:29;29.70;;;16.42;;
84510;SDS011;74730;43.858;18.424;2024-02-15T04:47:56;26.10;;;15.27;;
84510;SDS011;74730;43.858;18.424;2024-02-15T04:50:22;29.80;;;14.93;;
84510;SDS011;74730;43.858;18.424;2024-02-15T04:52:47;28.20;;;15.50;;
84510;SDS011;74730;43.858;18.424;2024-02-15T04:55:15;32.10;;;16.13;;
84510;SDS011;74730;43.858;18.424;2024-02-15T04:57:42;33.83;;;19.08;;
84510;SDS011;74730;43.858;18.424;2024-02-15T05:00:08;40.22;;;20.33;;
84510;SDS011;74730;43.858;18.424;2024-02-15T05:02:36;42.45;;;21.50;;
84510;SDS011;74730;43.858;18.424;2024-02-15T05:05:08;44.30;;;21.83;;
84510;SDS011;74730;43.858;18.424;2024-02-15T05:07:34;42.25;;;22.00;;
84510;SDS011;74730;43.858;18.424;2024-02-15T05:10:03;39.42;;;20.75;;
84510;SDS011;74730;43.858;18.424;2024-02-15T05:12:31;45.08;;;21.42;;
84510;SDS011;74730;43.858;18.424;2024-02-15T05:14:58;45.65;;;21.73;;
84510;SDS011;74730;43.858;18.424;2024-02-15T05:17:24;39.38;;;21.10;;
84510;SDS011;74730;43.858;18.424;2024-02-15T05:19:49;45.13;;;20.60;;
84510;SDS011;74730;43.858;18.424;2024-02-15T05:22:15;36.80;;;20.40;;
84510;SDS011;74730;43.858;18.424;2024-02-15T05:24:41;37.45;;;20.65;;
84510;SDS011;74730;43.858;18.424;2024-02-15T05:27:06;46.00;;;21.67;;
84510;SDS011;74730;43.858;18.424;2024-02-15T05:29:32;36.78;;;21.38;;
84510;SDS011;74730;43.858;18.424;2024-02-15T05:32:01;36.10;;;19.88;;
84510;SDS011;74730;43.858;18.424;2024-02-15T05:34:27;33.22;;;18.50;;
84510;SDS011;74730;43.858;18.424;2024-02-15T05:36:54;35.70;;;18.13;;
84510;SDS011;74730;43.858;18.424;2024-02-15T05:39:20;37.30;;;18.98;;
84510;SDS011;74730;43.858;18.424;2024-02-15T05:41:47;45.33;;;21.13;;
84510;SDS011;74730;43.858;18.424;2024-02-15T05:44:13;37.45;;;20.15;;
84510;SDS011;74730;43.858;18.424;2024-02-15T05:46:43;24.77;;;13.68;;
84510;SDS011;74730;43.858;18.424;2024-02-15T05:49:08;27.73;;;13.35;;
84510;SDS011;74730;43.858;18.424;2024-02-15T05:54:05;19.63;;;10.98;;
84510;SDS011;74730;43.858;18.424;2024-02-15T05:56:31;18.52;;;10.70;;
84510;SDS011;74730;43.858;18.424;2024-02-15T05:58:56;25.85;;;13.70;;
84510;SDS011;74730;43.858;18.424;2024-02-15T06:01:22;30.05;;;16.45;;
84510;SDS011;74730;43.858;18.424;2024-02-15T06:03:49;40.20;;;22.35;;
84510;SDS011;74730;43.858;18.424;2024-02-15T06:06:14;41.95;;;20.90;;
84510;SDS011;74730;43.858;18.424;2024-02-15T06:08:41;41.20;;;21.90;;
84510;SDS011;74730;43.858;18.424;2024-02-15T06:11:06;38.90;;;21.60;;
84510;SDS011;74730;43.858;18.424;2024-02-15T06:13:33;39.00;;;19.58;;
84510;SDS011;74730;43.858;18.424;2024-02-15T06:15:58;40.53;;;20.08;;
84510;SDS011;74730;43.858;18.424;2024-02-15T06:18:24;37.80;;;20.70;;
84510;SDS011;74730;43.858;18.424;2024-02-15T06:20:52;34.90;;;19.42;;
84510;SDS011;74730;43.858;18.424;2024-02-15T06:23:21;41.38;;;21.83;;
84510;SDS011;74730;43.858;18.424;2024-02-15T06:25:51;41.30;;;20.95;;
84510;SDS011;74730;43.858;18.424;2024-02-15T06:28:19;31.45;;;16.58;;
84510;SDS011;74730;43.858;18.424;2024-02-15T06:31:07;30.75;;;16.25;;
84510;SDS011;74730;43.858;18.424;2024-02-15T06:33:51;40.28;;;23.13;;
84510;SDS011;74730;43.858;18.424;2024-02-15T06:36:39;44.15;;;22.83;;
84510;SDS011;74730;43.858;18.424;2024-02-15T06:39:39;46.53;;;21.55;;
84510;SDS011;74730;43.858;18.424;2024-02-15T06:42:07;42.88;;;20.52;;
84510;SDS011;74730;43.858;18.424;2024-02-15T06:44:34;38.72;;;22.08;;
84510;SDS011;74730;43.858;18.424;2024-02-15T06:47:00;42.13;;;22.70;;
84510;SDS011;74730;43.858;18.424;2024-02-15T06:49:26;41.70;;;24.05;;
84510;SDS011;74730;43.858;18.424;2024-02-15T06:51:51;52.10;;;24.98;;
84510;SDS011;74730;43.858;18.424;2024-02-15T06:54:17;53.10;;;25.73;;
84510;SDS011;74730;43.858;18.424;2024-02-15T06:56:46;39.72;;;21.92;;
84510;SDS011;74730;43.858;18.424;2024-02-15T06:59:12;39.78;;;22.50;;
84510;SDS011;74730;43.858;18.424;2024-02-15T07:01:42;46.33;;;24.70;;
84510;SDS011;74730;43.858;18.424;2024-02-15T07:04:08;48.28;;;25.55;;
84510;SDS011;74730;43.858;18.424;2024-02-15T07:06:37;43.25;;;21.35;;
84510;SDS011;74730;43.858;18.424;2024-02-15T07:09:06;35.33;;;19.13;;
84510;SDS011;74730;43.858;18.424;2024-02-15T07:11:34;40.10;;;22.58;;
84510;SDS011;74730;43.858;18.424;2024-02-15T07:14:01;38.78;;;21.70;;
84510;SDS011;74730;43.858;18.424;2024-02-15T07:16:26;37.65;;;22.33;;
84510;SDS011;74730;43.858;18.424;2024-02-15T07:18:52;41.83;;;22.52;;
84510;SDS011;74730;43.858;18.424;2024-02-15T07:21:19;44.67;;;22.90;;
84510;SDS011;74730;43.858;18.424;2024-02-15T07:23:48;36.38;;;21.35;;
84510;SDS011;74730;43.858;18.424;2024-02-15T07:26:13;40.03;;;20.88;;
84510;SDS011;74730;43.858;18.424;2024-02-15T07:28:40;44.92;;;23.52;;
84510;SDS011;74730;43.858;18.424;2024-02-15T07:31:06;42.38;;;24.42;;
84510;SDS011;74730;43.858;18.424;2024-02-15T07:33:32;45.67;;;25.65;;
84510;SDS011;74730;43.858;18.424;2024-02-15T07:35:57;43.67;;;24.77;;
84510;SDS011;74730;43.858;18.424;2024-02-15T07:38:23;43.35;;;25.15;;
84510;SDS011;74730;43.858;18.424;2024-02-15T07:40:50;41.80;;;23.90;;
84510;SDS011;74730;43.858;18.424;2024-02-15T07:43:16;48.97;;;25.13;;
84510;SDS011;74730;43.858;18.424;2024-02-15T07:45:42;43.28;;;23.45;;
84510;SDS011;74730;43.858;18.424;2024-02-15T07:48:08;38.55;;;22.95;;
84510;SDS011;74730;43.858;18.424;2024-02-15T07:50:34;43.50;;;24.17;;
84510;SDS011;74730;43.858;18.424;2024-02-15T07:53:03;41.65;;;22.98;;
84510;SDS011;74730;43.858;18.424;2024-02-15T07:55:31;44.53;;;24.42;;
84510;SDS011;74730;43.858;18.424;2024-02-15T07:57:57;41.97;;;23.40;;
84510;SDS011;74730;43.858;18.424;2024-02-15T08:00:24;42.25;;;23.40;;
84510;SDS011;74730;43.858;18.424;2024-02-15T08:02:53;44.15;;;24.77;;
84510;SDS011;74730;43.858;18.424;2024-02-15T08:05:19;44.63;;;24.23;;
84510;SDS011;74730;43.858;18.424;2024-02-15T08:07:46;47.92;;;25.17;;
84510;SDS011;74730;43.858;18.424;2024-02-15T08:10:12;41.75;;;24.92;;
84510;SDS011;74730;43.858;18.424;2024-02-15T08:12:39;44.38;;;25.30;;
84510;SDS011;74730;43.858;18.424;2024-02-15T08:15:08;48.58;;;26.65;;
84510;SDS011;74730;43.858;18.424;2024-02-15T08:17:38;40.97;;;25.77;;
84510;SDS011;74730;43.858;18.424;2024-02-15T08:20:05;50.05;;;27.88;;
84510;SDS011;74730;43.858;18.424;2024-02-15T08:22:46;46.42;;;27.27;;
84510;SDS011;74730;43.858;18.424;2024-02-15T08:25:12;45.08;;;28.25;;
84510;SDS011;74730;43.858;18.424;2024-02-15T08:27:40;55.97;;;30.77;;
84510;SDS011;74730;43.858;18.424;2024-02-15T08:30:09;55.08;;;30.70;;
84510;SDS011;74730;43.858;18.424;2024-02-15T08:32:36;53.35;;;31.23;;
84510;SDS011;74730;43.858;18.424;2024-02-15T08:35:05;48.75;;;28.73;;
84510;SDS011;74730;43.858;18.424;2024-02-15T08:37:34;50.97;;;29.40;;
84510;SDS011;74730;43.858;18.424;2024-02-15T08:40:07;53.97;;;29.77;;
84510;SDS011;74730;43.858;18.424;2024-02-15T08:42:41;48.20;;;28.80;;
84510;SDS011;74730;43.858;18.424;2024-02-15T08:45:08;52.80;;;29.58;;
84510;SDS011;74730;43.858;18.424;2024-02-15T08:47:38;55.03;;;31.08;;
84510;SDS011;74730;43.858;18.424;2024-02-15T08:50:07;58.83;;;32.70;;
84510;SDS011;74730;43.858;18.424;2024-02-15T08:52:37;54.83;;;29.67;;
84510;SDS011;74730;43.858;18.424;2024-02-15T08:55:07;56.40;;;30.80;;
84510;SDS011;74730;43.858;18.424;2024-02-15T08:57:35;63.33;;;32.55;;
84510;SDS011;74730;43.858;18.424;2024-02-15T09:00:02;52.28;;;31.52;;
84510;SDS011;74730;43.858;18.424;2024-02-15T09:02:38;55.28;;;32.50;;
84510;SDS011;74730;43.858;18.424;2024-02-15T09:05:07;50.88;;;31.90;;
84510;SDS011;74730;43.858;18.424;2024-02-15T09:07:33;48.92;;;29.70;;
84510;SDS011;74730;43.858;18.424;2024-02-15T09:10:01;54.15;;;29.67;;
84510;SDS011;74730;43.858;18.424;2024-02-15T09:12:28;55.08;;;31.13;;
84510;SDS011;74730;43.858;18.424;2024-02-15T09:14:53;58.30;;;31.65;;
84510;SDS011;74730;43.858;18.424;2024-02-15T09:17:19;51.88;;;30.58;;
84510;SDS011;74730;43.858;18.424;2024-02-15T09:19:48;51.83;;;32.45;;
84510;SDS011;74730;43.858;18.424;2024-02-15T09:22:16;53.97;;;33.03;;
84510;SDS011;74730;43.858;18.424;2024-02-15T09:24:42;53.33;;;33.45;;
84510;SDS011;74730;43.858;18.424;2024-02-15T09:27:07;60.30;;;32.78;;
84510;SDS011;74730;43.858;18.424;2024-02-15T09:29:33;52.33;;;33.45;;
84510;SDS011;74730;43.858;18.424;2024-02-15T09:31:59;55.25;;;34.50;;
84510;SDS011;74730;43.858;18.424;2024-02-15T09:34:28;52.72;;;33.80;;
84510;SDS011;74730;43.858;18.424;2024-02-15T09:36:54;54.35;;;34.42;;
84510;SDS011;74730;43.858;18.424;2024-02-15T09:39:20;61.55;;;36.03;;
84510;SDS011;74730;43.858;18.424;2024-02-15T09:41:46;62.10;;;33.35;;
84510;SDS011;74730;43.858;18.424;2024-02-15T09:44:16;57.50;;;33.83;;
84510;SDS011;74730;43.858;18.424;2024-02-15T09:46:42;55.58;;;34.88;;
84510;SDS011;74730;43.858;18.424;2024-02-15T09:49:11;54.20;;;33.35;;
84510;SDS011;74730;43.858;18.424;2024-02-15T09:51:38;56.30;;;35.47;;
84510;SDS011;74730;43.858;18.424;2024-02-15T09:54:05;51.08;;;34.05;;
84510;SDS011;74730;43.858;18.424;2024-02-15T09:56:34;51.42;;;33.53;;
84510;SDS011;74730;43.858;18.424;2024-02-15T09:59:00;52.08;;;33.53;;
84510;SDS011;74730;43.858;18.424;2024-02-15T10:01:31;59.42;;;35.88;;
84510;SDS011;74730;43.858;18.424;2024-02-15T10:03:57;56.10;;;36.30;;
84510;SDS011;74730;43.858;18.424;2024-02-15T10:06:24;53.78;;;34.60;;
84510;SDS011;74730;43.858;18.424;2024-02-15T10:08:51;51.50;;;34.25;;
84510;SDS011;74730;43.858;18.424;2024-02-15T10:11:16;61.92;;;34.30;;
84510;SDS011;74730;43.858;18.424;2024-02-15T10:13:42;58.55;;;37.63;;
84510;SDS011;74730;43.858;18.424;2024-02-15T10:16:13;55.85;;;34.78;;
84510;SDS011;74730;43.858;18.424;2024-02-15T10:18:44;52.63;;;32.95;;
84510;SDS011;74730;43.858;18.424;2024-02-15T10:21:26;54.72;;;32.58;;
84510;SDS011;74730;43.858;18.424;2024-02-15T10:24:05;48.60;;;32.28;;
84510;SDS011;74730;43.858;18.424;2024-02-15T10:26:35;53.97;;;30.85;;
84510;SDS011;74730;43.858;18.424;2024-02-15T10:29:10;49.65;;;30.58;;
84510;SDS011;74730;43.858;18.424;2024-02-15T10:31:37;46.72;;;29.95;;
84510;SDS011;74730;43.858;18.424;2024-02-15T10:34:06;51.80;;;31.63;;
84510;SDS011;74730;43.858;18.424;2024-02-15T10:36:33;51.10;;;31.00;;
84510;SDS011;74730;43.858;18.424;2024-02-15T10:41:51;51.35;;;29.35;;
84510;SDS011;74730;43.858;18.424;2024-02-15T10:44:23;51.05;;;31.25;;
84510;SDS011;74730;43.858;18.424;2024-02-15T10:46:56;51.28;;;31.55;;
84510;SDS011;74730;43.858;18.424;2024-02-15T10:49:24;53.42;;;31.35;;
84510;SDS011;74730;43.858;18.424;2024-02-15T10:57:02;50.60;;;31.80;;
84510;SDS011;74730;43.858;18.424;2024-02-15T10:59:31;45.63;;;28.88;;
84510;SDS011;74730;43.858;18.424;2024-02-15T11:02:00;47.72;;;29.95;;
84510;SDS011;74730;43.858;18.424;2024-02-15T11:04:30;44.33;;;29.65;;
84510;SDS011;74730;43.858;18.424;2024-02-15T11:07:00;43.63;;;28.03;;
84510;SDS011;74730;43.858;18.424;2024-02-15T11:09:27;49.88;;;30.48;;
84510;SDS011;74730;43.858;18.424;2024-02-15T11:11:54;49.30;;;30.42;;
84510;SDS011;74730;43.858;18.424;2024-02-15T11:14:30;47.42;;;29.42;;
84510;SDS011;74730;43.858;18.424;2024-02-15T11:17:00;44.55;;;28.05;;
84510;SDS011;74730;43.858;18.424;2024-02-15T11:22:09;38.47;;;26.48;;
84510;SDS011;74730;43.858;18.424;2024-02-15T11:25:03;50.00;;;31.80;;
84510;SDS011;74730;43.858;18.424;2024-02-15T11:27:37;54.45;;;29.13;;
84510;SDS011;74730;43.858;18.424;2024-02-15T11:30:09;46.50;;;27.90;;
84510;SDS011;74730;43.858;18.424;2024-02-15T11:35:13;47.28;;;30.60;;
84510;SDS011;74730;43.858;18.424;2024-02-15T11:40:25;48.30;;;30.48;;
84510;SDS011;74730;43.858;18.424;2024-02-15T11:43:07;43.63;;;27.52;;
84510;SDS011;74730;43.858;18.424;2024-02-15T11:45:34;51.00;;;30.50;;
84510;SDS011;74730;43.858;18.424;2024-02-15T11:50:38;51.88;;;30.10;;
84510;SDS011;74730;43.858;18.424;2024-02-15T11:53:07;37.40;;;22.95;;
84510;SDS011;74730;43.858;18.424;2024-02-15T11:55:45;40.95;;;25.13;;
84510;SDS011;74730;43.858;18.424;2024-02-15T11:58:12;41.38;;;26.65;;
84510;SDS011;74730;43.858;18.424;2024-02-15T12:00:58;41.72;;;26.50;;
84510;SDS011;74730;43.858;18.424;2024-02-15T12:03:43;41.85;;;25.35;;
84510;SDS011;74730;43.858;18.424;2024-02-15T12:06:28;39.90;;;25.05;;
84510;SDS011;74730;43.858;18.424;2024-02-15T12:09:12;44.40;;;26.30;;
84510;SDS011;74730;43.858;18.424;2024-02-15T12:12:02;40.30;;;24.38;;
84510;SDS011;74730;43.858;18.424;2024-02-15T12:15:00;37.25;;;22.92;;
84510;SDS011;74730;43.858;18.424;2024-02-15T12:17:47;33.47;;;20.38;;
84510;SDS011;74730;43.858;18.424;2024-02-15T12:20:32;26.65;;;15.90;;
84510;SDS011;74730;43.858;18.424;2024-02-15T12:22:59;27.33;;;16.13;;
84510;SDS011;74730;43.858;18.424;2024-02-15T12:25:28;29.65;;;18.17;;
84510;SDS011;74730;43.858;18.424;2024-02-15T12:27:58;28.00;;;16.88;;
84510;SDS011;74730;43.858;18.424;2024-02-15T12:30:24;30.63;;;17.27;;
84510;SDS011;74730;43.858;18.424;2024-02-15T12:33:08;25.65;;;15.48;;
84510;SDS011;74730;43.858;18.424;2024-02-15T12:35:35;27.98;;;17.33;;
84510;SDS011;74730;43.858;18.424;2024-02-15T12:38:02;29.98;;;18.60;;
84510;SDS011;74730;43.858;18.424;2024-02-15T12:40:32;38.78;;;22.75;;
84510;SDS011;74730;43.858;18.424;2024-02-15T12:42:59;33.67;;;20.98;;
84510;SDS011;74730;43.858;18.424;2024-02-15T12:45:25;32.50;;;21.30;;
84510;SDS011;74730;43.858;18.424;2024-02-15T12:47:55;30.60;;;19.67;;
84510;SDS011;74730;43.858;18.424;2024-02-15T12:50:30;29.48;;;18.02;;
84510;SDS011;74730;43.858;18.424;2024-02-15T12:52:56;35.95;;;20.80;;
84510;SDS011;74730;43.858;18.424;2024-02-15T12:55:28;35.00;;;20.15;;
84510;SDS011;74730;43.858;18.424;2024-02-15T12:57:59;33.28;;;22.50;;
84510;SDS011;74730;43.858;18.424;2024-02-15T13:00:29;36.97;;;24.98;;
84510;SDS011;74730;43.858;18.424;2024-02-15T13:02:58;35.35;;;23.60;;
84510;SDS011;74730;43.858;18.424;2024-02-15T13:05:26;40.63;;;23.02;;
84510;SDS011;74730;43.858;18.424;2024-02-15T13:07:52;37.35;;;23.27;;
84510;SDS011;74730;43.858;18.424;2024-02-15T13:10:21;34.58;;;22.20;;
84510;SDS011;74730;43.858;18.424;2024-02-15T13:12:48;30.33;;;19.05;;
84510;SDS011;74730;43.858;18.424;2024-02-15T13:15:14;30.15;;;20.70;;
84510;SDS011;74730;43.858;18.424;2024-02-15T13:17:49;34.83;;;21.55;;
84510;SDS011;74730;43.858;18.424;2024-02-15T13:20:21;35.83;;;21.60;;
84510;SDS011;74730;43.858;18.424;2024-02-15T13:22:57;37.38;;;22.65;;
84510;SDS011;74730;43.858;18.424;2024-02-15T13:25:30;33.30;;;21.13;;
84510;SDS011;74730;43.858;18.424;2024-02-15T13:27:56;31.30;;;19.60;;
84510;SDS011;74730;43.858;18.424;2024-02-15T13:30:22;33.58;;;19.10;;
84510;SDS011;74730;43.858;18.424;2024-02-15T13:32:52;29.77;;;19.38;;
84510;SDS011;74730;43.858;18.424;2024-02-15T13:35:19;33.38;;;19.33;;
84510;SDS011;74730;43.858;18.424;2024-02-15T13:37:52;30.48;;;19.65;;
84510;SDS011;74730;43.858;18.424;2024-02-15T13:40:19;35.83;;;22.13;;
84510;SDS011;74730;43.858;18.424;2024-02-15T13:42:49;25.95;;;17.13;;
84510;SDS011;74730;43.858;18.424;2024-02-15T13:45:30;28.13;;;17.10;;
84510;SDS011;74730;43.858;18.424;2024-02-15T13:48:02;30.67;;;17.67;;
84510;SDS011;74730;43.858;18.424;2024-02-15T13:50:30;32.53;;;16.85;;
84510;SDS011;74730;43.858;18.424;2024-02-15T13:52:56;26.95;;;18.38;;
84510;SDS011;74730;43.858;18.424;2024-02-15T13:55:23;28.05;;;16.25;;
84510;SDS011;74730;43.858;18.424;2024-02-15T13:57:53;24.02;;;15.73;;
84510;SDS011;74730;43.858;18.424;2024-02-15T14:00:21;21.00;;;12.57;;
84510;SDS011;74730;43.858;18.424;2024-02-15T14:02:51;20.77;;;12.13;;
84510;SDS011;74730;43.858;18.424;2024-02-15T14:05:22;20.50;;;13.07;;
84510;SDS011;74730;43.858;18.424;2024-02-15T14:07:50;20.85;;;12.00;;
84510;SDS011;74730;43.858;18.424;2024-02-15T14:10:27;17.58;;;9.90;;
84510;SDS011;74730;43.858;18.424;2024-02-15T14:12:59;18.05;;;11.60;;
84510;SDS011;74730;43.858;18.424;2024-02-15T14:15:26;17.38;;;9.68;;
84510;SDS011;74730;43.858;18.424;2024-02-15T14:17:52;17.60;;;10.80;;
84510;SDS011;74730;43.858;18.424;2024-02-15T14:20:18;19.00;;;11.25;;
84510;SDS011;74730;43.858;18.424;2024-02-15T14:22:46;18.38;;;10.73;;
84510;SDS011;74730;43.858;18.424;2024-02-15T14:25:21;19.58;;;11.38;;
84510;SDS011;74730;43.858;18.424;2024-02-15T14:27:47;18.55;;;11.25;;
84510;SDS011;74730;43.858;18.424;2024-02-15T14:30:15;23.95;;;11.85;;
84510;SDS011;74730;43.858;18.424;2024-02-15T14:32:59;21.17;;;11.85;;
84510;SDS011;74730;43.858;18.424;2024-02-15T14:35:36;22.95;;;12.93;;
84510;SDS011;74730;43.858;18.424;2024-02-15T14:38:06;21.48;;;11.48;;
84510;SDS011;74730;43.858;18.424;2024-02-15T14:40:37;21.45;;;11.45;;